sensor_id;sensor_type;location;lat;lon;timestamp;pressure;altitude;pressure_sealevel;temperature;humidity
9474;BME280;8865;47.636;7.692;2022-10-26T00:00:52;98266.22;;;14.01;100.00
9474;BME280;8865;47.636;7.692;2022-10-26T00:03:26;98271.25;;;13.94;100.00
9474;BME280;8865;47.636;7.692;2022-10-26T00:05:52;98270.06;;;13.88;100.00
9474;BME280;8865;47.636;7.692;2022-10-26T00:08:18;98280.91;;;13.85;100.00
9474;BME280;8865;47.636;7.692;2022-10-26T00:10:44;98278.72;;;13.81;100.00
9474;BME280;8865;47.636;7.692;2022-10-26T00:13:11;98276.56;;;13.76;100.00
9474;BME280;8865;47.636;7.692;2022-10-26T00:15:41;98274.78;;;13.67;100.00
9474;BME280;8865;47.636;7.692;2022-10-26T00:18:08;98276.09;;;13.63;100.00
9474;BME280;8865;47.636;7.692;2022-10-26T00:20:34;98280.97;;;13.57;100.00
9474;BME280;8865;47.636;7.692;2022-10-26T00:23:00;98277.81;;;13.54;100.00
9474;BME280;8865;47.636;7.692;2022-10-26T00:25:26;98270.16;;;13.43;100.00
9474;BME280;8865;47.636;7.692;2022-10-26T00:27:52;98269.63;;;13.39;100.00
9474;BME280;8865;47.636;7.692;2022-10-26T00:30:18;98273.25;;;13.38;100.00
9474;BME280;8865;47.636;7.692;2022-10-26T00:32:44;98279.31;;;13.38;100.00
9474;BME280;8865;47.636;7.692;2022-10-26T00:35:10;98286.41;;;13.38;100.00
9474;BME280;8865;47.636;7.692;2022-10-26T00:37:36;98287.38;;;13.37;100.00
9474;BME280;8865;47.636;7.692;2022-10-26T00:40:02;98294.00;;;13.41;100.00
9474;BME280;8865;47.636;7.692;2022-10-26T00:42:28;98298.34;;;13.50;100.00
9474;BME280;8865;47.636;7.692;2022-10-26T00:45:00;98304.28;;;13.52;100.00
9474;BME280;8865;47.636;7.692;2022-10-26T00:47:38;98309.25;;;13.55;100.00
9474;BME280;8865;47.636;7.692;2022-10-26T00:50:11;98316.03;;;13.58;100.00
9474;BME280;8865;47.636;7.692;2022-10-26T00:52:40;98310.31;;;13.63;100.00
9474;BME280;8865;47.636;7.692;2022-10-26T00:55:07;98311.13;;;13.63;100.00
9474;BME280;8865;47.636;7.692;2022-10-26T00:57:35;98317.34;;;13.62;100.00
9474;BME280;8865;47.636;7.692;2022-10-26T01:00:04;98329.41;;;13.65;100.00
9474;BME280;8865;47.636;7.692;2022-10-26T01:02:31;98331.88;;;13.66;100.00
9474;BME280;8865;47.636;7.692;2022-10-26T01:04:58;98338.81;;;13.67;100.00
9474;BME280;8865;47.636;7.692;2022-10-26T01:07:24;98340.75;;;13.65;100.00
9474;BME280;8865;47.636;7.692;2022-10-26T01:09:51;98348.22;;;13.70;100.00
9474;BME280;8865;47.636;7.692;2022-10-26T01:12:17;98355.41;;;13.68;100.00
9474;BME280;8865;47.636;7.692;2022-10-26T01:14:43;98382.81;;;13.75;100.00
9474;BME280;8865;47.636;7.692;2022-10-26T01:17:43;98375.88;;;13.74;100.00
9474;BME280;8865;47.636;7.692;2022-10-26T01:22:53;98439.75;;;13.76;100.00
9474;BME280;8865;47.636;7.692;2022-10-26T01:27:53;98466.91;;;13.77;100.00
9474;BME280;8865;47.636;7.692;2022-10-26T01:30:27;98439.75;;;13.76;100.00
9474;BME280;8865;47.636;7.692;2022-10-26T01:33:32;98442.13;;;13.69;100.00
9474;BME280;8865;47.636;7.692;2022-10-26T01:36:10;98441.53;;;13.75;100.00
9474;BME280;8865;47.636;7.692;2022-10-26T01:43:54;98458.56;;;13.81;100.00
9474;BME280;8865;47.636;7.692;2022-10-26T01:46:23;98432.53;;;13.78;100.00
9474;BME280;8865;47.636;7.692;2022-10-26T01:48:57;98458.84;;;13.78;100.00
9474;BME280;8865;47.636;7.692;2022-10-26T01:51:25;98480.44;;;13.82;100.00
9474;BME280;8865;47.636;7.692;2022-10-26T01:53:52;98463.38;;;13.86;100.00
9474;BME280;8865;47.636;7.692;2022-10-26T01:56:24;98441.34;;;13.87;100.00
9474;BME280;8865;47.636;7.692;2022-10-26T02:07:06;98436.75;;;13.89;100.00
9474;BME280;8865;47.636;7.692;2022-10-26T02:10:48;98468.06;;;13.92;100.00
9474;BME280;8865;47.636;7.692;2022-10-26T02:15:21;98477.63;;;13.93;100.00
9474;BME280;8865;47.636;7.692;2022-10-26T02:17:57;98455.56;;;13.94;100.00
9474;BME280;8865;47.636;7.692;2022-10-26T02:20:31;98456.41;;;13.95;100.00
9474;BME280;8865;47.636;7.692;2022-10-26T02:23:00;98465.34;;;14.02;100.00
9474;BME280;8865;47.636;7.692;2022-10-26T02:25:31;98479.88;;;14.06;100.00
9474;BME280;8865;47.636;7.692;2022-10-26T02:28:04;98460.47;;;14.07;100.00
9474;BME280;8865;47.636;7.692;2022-10-26T02:30:33;98454.66;;;14.03;100.00
9474;BME280;8865;47.636;7.692;2022-10-26T02:33:01;98446.31;;;14.08;100.00
9474;BME280;8865;47.636;7.692;2022-10-26T02:35:30;98433.91;;;14.00;100.00
9474;BME280;8865;47.636;7.692;2022-10-26T02:38:00;98447.38;;;13.97;100.00
9474;BME280;8865;47.636;7.692;2022-10-26T02:40:28;98447.75;;;14.02;100.00
9474;BME280;8865;47.636;7.692;2022-10-26T02:42:58;98443.09;;;13.96;100.00
9474;BME280;8865;47.636;7.692;2022-10-26T02:45:32;98439.31;;;13.99;100.00
9474;BME280;8865;47.636;7.692;2022-10-26T02:47:58;98442.25;;;13.96;100.00
9474;BME280;8865;47.636;7.692;2022-10-26T02:50:50;98437.41;;;13.91;100.00
9474;BME280;8865;47.636;7.692;2022-10-26T02:53:23;98453.06;;;13.92;100.00
9474;BME280;8865;47.636;7.692;2022-10-26T02:55:51;98447.00;;;13.92;100.00
9474;BME280;8865;47.636;7.692;2022-10-26T02:58:22;98430.69;;;13.88;100.00
9474;BME280;8865;47.636;7.692;2022-10-26T03:00:49;98433.34;;;13.79;100.00
9474;BME280;8865;47.636;7.692;2022-10-26T03:03:16;98443.22;;;13.77;100.00
9474;BME280;8865;47.636;7.692;2022-10-26T03:05:42;98463.53;;;13.84;100.00
9474;BME280;8865;47.636;7.692;2022-10-26T03:08:08;98450.22;;;13.86;100.00
9474;BME280;8865;47.636;7.692;2022-10-26T03:10:40;98448.84;;;13.82;100.00
9474;BME280;8865;47.636;7.692;2022-10-26T03:13:07;98432.38;;;13.80;100.00
9474;BME280;8865;47.636;7.692;2022-10-26T03:15:33;98444.44;;;13.82;100.00
9474;BME280;8865;47.636;7.692;2022-10-26T03:17:59;98451.78;;;13.79;100.00
9474;BME280;8865;47.636;7.692;2022-10-26T03:20:24;98454.41;;;13.79;100.00
9474;BME280;8865;47.636;7.692;2022-10-26T03:22:50;98455.09;;;13.81;100.00
9474;BME280;8865;47.636;7.692;2022-10-26T03:25:16;98454.25;;;13.80;100.00
9474;BME280;8865;47.636;7.692;2022-10-26T03:27:43;98459.09;;;13.85;100.00
9474;BME280;8865;47.636;7.692;2022-10-26T03:30:09;98459.22;;;13.83;100.00
9474;BME280;8865;47.636;7.692;2022-10-26T03:32:35;98464.66;;;13.82;100.00
9474;BME280;8865;47.636;7.692;2022-10-26T03:35:01;98462.56;;;13.85;100.00
9474;BME280;8865;47.636;7.692;2022-10-26T03:37:28;98457.16;;;13.87;100.00
9474;BME280;8865;47.636;7.692;2022-10-26T03:39:53;98436.75;;;13.89;100.00
9474;BME280;8865;47.636;7.692;2022-10-26T03:42:19;98435.38;;;13.85;100.00
9474;BME280;8865;47.636;7.692;2022-10-26T03:44:45;98449.56;;;13.84;100.00
9474;BME280;8865;47.636;7.692;2022-10-26T03:47:12;98463.53;;;13.84;100.00
9474;BME280;8865;47.636;7.692;2022-10-26T03:49:38;98463.00;;;13.81;100.00
9474;BME280;8865;47.636;7.692;2022-10-26T03:52:04;98456.75;;;13.82;100.00
9474;BME280;8865;47.636;7.692;2022-10-26T03:54:30;98453.16;;;13.83;100.00
9474;BME280;8865;47.636;7.692;2022-10-26T03:56:56;98461.72;;;13.85;100.00
9474;BME280;8865;47.636;7.692;2022-10-26T03:59:22;98453.53;;;13.88;100.00
9474;BME280;8865;47.636;7.692;2022-10-26T04:01:48;98434.88;;;13.81;100.00
9474;BME280;8865;47.636;7.692;2022-10-26T04:04:14;98441.84;;;13.72;100.00
9474;BME280;8865;47.636;7.692;2022-10-26T04:06:40;98437.41;;;13.73;100.00
9474;BME280;8865;47.636;7.692;2022-10-26T04:09:06;98447.38;;;13.79;100.00
9474;BME280;8865;47.636;7.692;2022-10-26T04:11:32;98451.63;;;13.80;100.00
9474;BME280;8865;47.636;7.692;2022-10-26T04:13:58;98464.78;;;13.80;100.00
9474;BME280;8865;47.636;7.692;2022-10-26T04:16:25;98463.38;;;13.86;100.00
9474;BME280;8865;47.636;7.692;2022-10-26T04:18:51;98468.34;;;13.89;100.00
9474;BME280;8865;47.636;7.692;2022-10-26T04:21:17;98488.59;;;13.88;100.00
9474;BME280;8865;47.636;7.692;2022-10-26T04:23:43;98481.81;;;13.86;100.00
9474;BME280;8865;47.636;7.692;2022-10-26T04:26:09;98479.41;;;13.92;100.00
9474;BME280;8865;47.636;7.692;2022-10-26T04:28:35;98480.69;;;13.88;100.00
9474;BME280;8865;47.636;7.692;2022-10-26T04:31:01;98485.81;;;13.90;100.00
9474;BME280;8865;47.636;7.692;2022-10-26T04:33:27;98490.25;;;13.89;100.00
9474;BME280;8865;47.636;7.692;2022-10-26T04:35:58;98487.59;;;13.89;100.00
9474;BME280;8865;47.636;7.692;2022-10-26T04:38:24;98486.50;;;13.92;100.00
9474;BME280;8865;47.636;7.692;2022-10-26T04:40:50;98510.47;;;13.89;100.00
9474;BME280;8865;47.636;7.692;2022-10-26T04:43:16;98519.59;;;13.95;100.00
9474;BME280;8865;47.636;7.692;2022-10-26T04:45:42;98496.88;;;13.93;100.00
9474;BME280;8865;47.636;7.692;2022-10-26T04:48:12;98477.06;;;13.89;100.00
9474;BME280;8865;47.636;7.692;2022-10-26T04:50:38;98465.88;;;13.87;100.00
9474;BME280;8865;47.636;7.692;2022-10-26T04:53:08;98466.97;;;13.85;100.00
9474;BME280;8865;47.636;7.692;2022-10-26T04:55:34;98484.81;;;13.91;100.00
9474;BME280;8865;47.636;7.692;2022-10-26T04:58:00;98489.34;;;13.99;100.00
9474;BME280;8865;47.636;7.692;2022-10-26T05:00:26;98477.84;;;14.00;100.00
9474;BME280;8865;47.636;7.692;2022-10-26T05:03:02;98482.28;;;13.99;100.00
9474;BME280;8865;47.636;7.692;2022-10-26T05:05:31;98488.38;;;14.00;100.00
9474;BME280;8865;47.636;7.692;2022-10-26T05:07:57;98483.25;;;13.98;100.00
9474;BME280;8865;47.636;7.692;2022-10-26T05:10:24;98474.41;;;13.99;100.00
9474;BME280;8865;47.636;7.692;2022-10-26T05:12:51;98497.84;;;13.92;100.00
9474;BME280;8865;47.636;7.692;2022-10-26T05:15:18;98481.88;;;13.94;100.00
9474;BME280;8865;47.636;7.692;2022-10-26T05:17:44;98495.59;;;13.98;100.00
9474;BME280;8865;47.636;7.692;2022-10-26T05:20:10;98503.50;;;13.98;100.00
9474;BME280;8865;47.636;7.692;2022-10-26T05:22:41;98512.09;;;14.00;100.00
9474;BME280;8865;47.636;7.692;2022-10-26T05:25:07;98518.56;;;14.05;100.00
9474;BME280;8865;47.636;7.692;2022-10-26T05:27:33;98513.91;;;13.99;100.00
9474;BME280;8865;47.636;7.692;2022-10-26T05:29:59;98513.97;;;14.07;100.00
9474;BME280;8865;47.636;7.692;2022-10-26T05:32:25;98514.78;;;14.08;100.00
9474;BME280;8865;47.636;7.692;2022-10-26T05:34:51;98517.88;;;14.03;100.00
9474;BME280;8865;47.636;7.692;2022-10-26T05:37:17;98516.09;;;14.04;100.00
9474;BME280;8865;47.636;7.692;2022-10-26T05:39:43;98515.50;;;14.10;100.00
9474;BME280;8865;47.636;7.692;2022-10-26T05:42:09;98519.38;;;14.06;100.00
9474;BME280;8865;47.636;7.692;2022-10-26T05:44:35;98520.34;;;14.05;100.00
9474;BME280;8865;47.636;7.692;2022-10-26T05:47:01;98514.28;;;14.04;100.00
9474;BME280;8865;47.636;7.692;2022-10-26T05:49:27;98512.16;;;14.08;100.00
9474;BME280;8865;47.636;7.692;2022-10-26T05:51:53;98513.81;;;14.09;100.00
9474;BME280;8865;47.636;7.692;2022-10-26T05:54:18;98516.75;;;14.06;100.00
9474;BME280;8865;47.636;7.692;2022-10-26T05:56:45;98517.06;;;14.03;100.00
9474;BME280;8865;47.636;7.692;2022-10-26T05:59:13;98520.06;;;14.08;100.00
9474;BME280;8865;47.636;7.692;2022-10-26T06:04:41;98530.84;;;14.15;100.00
9474;BME280;8865;47.636;7.692;2022-10-26T06:07:11;98535.28;;;14.14;100.00
9474;BME280;8865;47.636;7.692;2022-10-26T06:09:39;98528.38;;;14.13;100.00
9474;BME280;8865;47.636;7.692;2022-10-26T06:12:06;98539.56;;;14.15;100.00
9474;BME280;8865;47.636;7.692;2022-10-26T06:14:33;98546.97;;;14.11;100.00
9474;BME280;8865;47.636;7.692;2022-10-26T06:25:25;98563.63;;;14.30;100.00
9474;BME280;8865;47.636;7.692;2022-10-26T06:30:29;98568.44;;;14.35;100.00
9474;BME280;8865;47.636;7.692;2022-10-26T06:32:55;98570.09;;;14.36;100.00
9474;BME280;8865;47.636;7.692;2022-10-26T06:38:09;98576.56;;;14.41;100.00
9474;BME280;8865;47.636;7.692;2022-10-26T06:40:38;98579.22;;;14.41;100.00
9474;BME280;8865;47.636;7.692;2022-10-26T06:43:12;98591.63;;;14.49;100.00
9474;BME280;8865;47.636;7.692;2022-10-26T06:45:44;98586.06;;;14.52;100.00
9474;BME280;8865;47.636;7.692;2022-10-26T06:48:18;98596.75;;;14.51;100.00
9474;BME280;8865;47.636;7.692;2022-10-26T06:50:51;98591.03;;;14.55;100.00
9474;BME280;8865;47.636;7.692;2022-10-26T06:55:57;98587.38;;;14.66;100.00
9474;BME280;8865;47.636;7.692;2022-10-26T06:58:27;98594.31;;;14.67;100.00
9474;BME280;8865;47.636;7.692;2022-10-26T07:00:55;98596.50;;;14.72;100.00
9474;BME280;8865;47.636;7.692;2022-10-26T07:03:21;98592.16;;;14.80;100.00
9474;BME280;8865;47.636;7.692;2022-10-26T07:05:48;98595.31;;;14.84;100.00
9474;BME280;8865;47.636;7.692;2022-10-26T07:08:14;98595.00;;;14.87;100.00
9474;BME280;8865;47.636;7.692;2022-10-26T07:10:40;98599.81;;;14.92;100.00
9474;BME280;8865;47.636;7.692;2022-10-26T07:13:08;98608.09;;;14.97;100.00
9474;BME280;8865;47.636;7.692;2022-10-26T07:15:35;98615.94;;;15.07;100.00
9474;BME280;8865;47.636;7.692;2022-10-26T07:18:05;98612.72;;;15.13;100.00
9474;BME280;8865;47.636;7.692;2022-10-26T07:20:39;98600.03;;;15.16;100.00
9474;BME280;8865;47.636;7.692;2022-10-26T07:23:06;98609.75;;;15.16;100.00
9474;BME280;8865;47.636;7.692;2022-10-26T07:25:33;98607.78;;;15.18;100.00
9474;BME280;8865;47.636;7.692;2022-10-26T07:27:59;98610.44;;;15.18;100.00
9474;BME280;8865;47.636;7.692;2022-10-26T07:30:27;98623.00;;;15.24;100.00
9474;BME280;8865;47.636;7.692;2022-10-26T07:33:04;98622.41;;;15.30;100.00
9474;BME280;8865;47.636;7.692;2022-10-26T07:35:32;98622.59;;;15.37;100.00
9474;BME280;8865;47.636;7.692;2022-10-26T07:37:58;98628.47;;;15.49;100.00
9474;BME280;8865;47.636;7.692;2022-10-26T07:40:25;98628.19;;;15.60;100.00
9474;BME280;8865;47.636;7.692;2022-10-26T07:42:52;98629.59;;;15.72;100.00
9474;BME280;8865;47.636;7.692;2022-10-26T07:45:20;98636.69;;;15.90;100.00
9474;BME280;8865;47.636;7.692;2022-10-26T07:47:46;98636.22;;;15.95;100.00
9474;BME280;8865;47.636;7.692;2022-10-26T07:50:13;98635.16;;;15.87;100.00
9474;BME280;8865;47.636;7.692;2022-10-26T07:52:39;98634.97;;;15.81;100.00
9474;BME280;8865;47.636;7.692;2022-10-26T07:55:10;98649.91;;;15.72;100.00
9474;BME280;8865;47.636;7.692;2022-10-26T07:57:37;98655.50;;;15.69;100.00
9474;BME280;8865;47.636;7.692;2022-10-26T08:00:05;98653.63;;;15.61;100.00
9474;BME280;8865;47.636;7.692;2022-10-26T08:02:33;98656.88;;;15.55;100.00
9474;BME280;8865;47.636;7.692;2022-10-26T08:04:59;98666.41;;;15.48;100.00
9474;BME280;8865;47.636;7.692;2022-10-26T08:07:25;98673.84;;;15.52;100.00
9474;BME280;8865;47.636;7.692;2022-10-26T08:09:51;98667.03;;;15.68;100.00
9474;BME280;8865;47.636;7.692;2022-10-26T08:12:18;98657.25;;;16.55;100.00
9474;BME280;8865;47.636;7.692;2022-10-26T08:14:44;98641.31;;;17.72;100.00
9474;BME280;8865;47.636;7.692;2022-10-26T08:17:11;98622.47;;;18.86;100.00
9474;BME280;8865;47.636;7.692;2022-10-26T08:19:37;98606.47;;;19.70;100.00
9474;BME280;8865;47.636;7.692;2022-10-26T08:22:03;98591.16;;;20.68;100.00
9474;BME280;8865;47.636;7.692;2022-10-26T08:24:29;98583.63;;;22.69;100.00
9474;BME280;8865;47.636;7.692;2022-10-26T08:26:55;98577.25;;;25.06;100.00
9474;BME280;8865;47.636;7.692;2022-10-26T08:29:21;98574.63;;;27.62;88.01
9474;BME280;8865;47.636;7.692;2022-10-26T08:31:47;98573.25;;;30.10;66.00
9474;BME280;8865;47.636;7.692;2022-10-26T08:34:13;98566.19;;;31.13;56.96
9474;BME280;8865;47.636;7.692;2022-10-26T08:36:39;98566.31;;;30.96;56.57
9474;BME280;8865;47.636;7.692;2022-10-26T08:39:05;98559.88;;;29.20;61.92
9474;BME280;8865;47.636;7.692;2022-10-26T08:41:37;98567.81;;;27.24;72.39
9474;BME280;8865;47.636;7.692;2022-10-26T08:44:24;98569.75;;;26.51;84.22
9474;BME280;8865;47.636;7.692;2022-10-26T08:46:59;98574.13;;;28.87;71.74
9474;BME280;8865;47.636;7.692;2022-10-26T08:49:34;98576.34;;;31.76;54.07
9474;BME280;8865;47.636;7.692;2022-10-26T08:52:04;98573.50;;;32.09;51.69
9474;BME280;8865;47.636;7.692;2022-10-26T08:54:44;98569.91;;;32.71;47.29
9474;BME280;8865;47.636;7.692;2022-10-26T08:57:37;98571.75;;;34.34;42.86
9474;BME280;8865;47.636;7.692;2022-10-26T09:00:06;98571.25;;;34.22;41.49
9474;BME280;8865;47.636;7.692;2022-10-26T09:02:35;98581.31;;;32.89;44.03
9474;BME280;8865;47.636;7.692;2022-10-26T09:05:01;98574.25;;;32.67;45.21
9474;BME280;8865;47.636;7.692;2022-10-26T09:10:15;98574.38;;;35.23;39.48
9474;BME280;8865;47.636;7.692;2022-10-26T09:13:05;98570.50;;;34.16;41.28
9474;BME280;8865;47.636;7.692;2022-10-26T09:15:53;98575.25;;;35.48;39.50
9474;BME280;8865;47.636;7.692;2022-10-26T09:18:39;98570.59;;;36.59;35.40
9474;BME280;8865;47.636;7.692;2022-10-26T09:29:06;98569.13;;;40.59;27.91
9474;BME280;8865;47.636;7.692;2022-10-26T09:31:44;98576.38;;;41.54;27.21
9474;BME280;8865;47.636;7.692;2022-10-26T09:34:36;98570.03;;;42.64;25.13
9474;BME280;8865;47.636;7.692;2022-10-26T09:37:25;98560.25;;;43.34;23.82
9474;BME280;8865;47.636;7.692;2022-10-26T09:43:16;98568.44;;;43.67;22.58
9474;BME280;8865;47.636;7.692;2022-10-26T09:45:52;98569.47;;;44.53;22.40
9474;BME280;8865;47.636;7.692;2022-10-26T09:48:24;98568.88;;;44.59;21.42
9474;BME280;8865;47.636;7.692;2022-10-26T09:50:51;98562.41;;;45.12;21.33
9474;BME280;8865;47.636;7.692;2022-10-26T09:53:17;98567.25;;;45.79;19.85
9474;BME280;8865;47.636;7.692;2022-10-26T09:55:48;98566.13;;;45.99;19.00
9474;BME280;8865;47.636;7.692;2022-10-26T09:58:19;98571.06;;;46.45;19.06
9474;BME280;8865;47.636;7.692;2022-10-26T10:00:49;98565.94;;;46.86;18.70
9474;BME280;8865;47.636;7.692;2022-10-26T10:03:24;98568.19;;;47.23;18.59
9474;BME280;8865;47.636;7.692;2022-10-26T10:05:50;98573.41;;;47.29;17.94
9474;BME280;8865;47.636;7.692;2022-10-26T10:08:21;98572.38;;;47.87;18.04
9474;BME280;8865;47.636;7.692;2022-10-26T10:11:07;98578.72;;;48.44;17.54
9474;BME280;8865;47.636;7.692;2022-10-26T10:13:37;98581.91;;;48.77;17.16
9474;BME280;8865;47.636;7.692;2022-10-26T10:18:30;98574.56;;;49.96;16.09
9474;BME280;8865;47.636;7.692;2022-10-26T10:20:57;98584.06;;;50.68;15.17
9474;BME280;8865;47.636;7.692;2022-10-26T10:23:26;98579.72;;;50.89;14.65
9474;BME280;8865;47.636;7.692;2022-10-26T10:28:27;98580.22;;;51.31;13.90
9474;BME280;8865;47.636;7.692;2022-10-26T10:30:58;98579.16;;;50.29;14.70
9474;BME280;8865;47.636;7.692;2022-10-26T10:33:36;98576.56;;;50.90;15.15
9474;BME280;8865;47.636;7.692;2022-10-26T10:36:06;98574.94;;;50.86;14.49
9474;BME280;8865;47.636;7.692;2022-10-26T10:38:42;98580.38;;;50.39;15.55
9474;BME280;8865;47.636;7.692;2022-10-26T10:46:25;98579.38;;;50.02;14.56
9474;BME280;8865;47.636;7.692;2022-10-26T10:48:59;98582.47;;;50.60;14.05
9474;BME280;8865;47.636;7.692;2022-10-26T10:51:27;98584.41;;;49.79;14.29
9474;BME280;8865;47.636;7.692;2022-10-26T10:53:55;98580.56;;;48.63;14.24
9474;BME280;8865;47.636;7.692;2022-10-26T11:07:19;98571.41;;;47.02;16.42
9474;BME280;8865;47.636;7.692;2022-10-26T11:09:47;98578.06;;;46.78;17.29
9474;BME280;8865;47.636;7.692;2022-10-26T11:12:18;98579.28;;;47.00;16.36
9474;BME280;8865;47.636;7.692;2022-10-26T11:14:52;98577.69;;;46.99;16.59
9474;BME280;8865;47.636;7.692;2022-10-26T11:17:25;98577.81;;;47.30;16.19
9474;BME280;8865;47.636;7.692;2022-10-26T11:19:56;98587.75;;;46.49;17.53
9474;BME280;8865;47.636;7.692;2022-10-26T11:25:49;98579.28;;;45.71;17.89
9474;BME280;8865;47.636;7.692;2022-10-26T11:31:07;98581.88;;;46.15;17.28
9474;BME280;8865;47.636;7.692;2022-10-26T11:36:34;98582.16;;;45.42;17.56
9474;BME280;8865;47.636;7.692;2022-10-26T11:39:35;98580.00;;;45.84;18.65
9474;BME280;8865;47.636;7.692;2022-10-26T11:42:28;98586.38;;;46.78;17.51
9474;BME280;8865;47.636;7.692;2022-10-26T11:45:03;98574.81;;;45.66;18.01
9474;BME280;8865;47.636;7.692;2022-10-26T11:50:49;98578.38;;;44.74;19.58
9474;BME280;8865;47.636;7.692;2022-10-26T11:53:20;98577.69;;;45.38;18.15
9474;BME280;8865;47.636;7.692;2022-10-26T11:55:51;98575.09;;;45.61;17.94
9474;BME280;8865;47.636;7.692;2022-10-26T11:58:22;98582.84;;;45.07;18.85
9474;BME280;8865;47.636;7.692;2022-10-26T12:00:52;98585.81;;;45.62;17.76
9474;BME280;8865;47.636;7.692;2022-10-26T12:03:43;98583.63;;;44.51;18.81
9474;BME280;8865;47.636;7.692;2022-10-26T12:06:14;98576.44;;;44.91;18.44
9474;BME280;8865;47.636;7.692;2022-10-26T12:08:46;98576.34;;;44.59;18.61
9474;BME280;8865;47.636;7.692;2022-10-26T12:19:49;98584.13;;;45.42;17.59
9474;BME280;8865;47.636;7.692;2022-10-26T12:22:18;98581.28;;;44.13;19.88
9474;BME280;8865;47.636;7.692;2022-10-26T12:25:04;98592.41;;;44.41;19.00
9474;BME280;8865;47.636;7.692;2022-10-26T12:27:32;98583.94;;;44.09;18.90
9474;BME280;8865;47.636;7.692;2022-10-26T12:40:47;98588.53;;;44.05;19.52
9474;BME280;8865;47.636;7.692;2022-10-26T12:45:40;98591.09;;;43.48;19.19
9474;BME280;8865;47.636;7.692;2022-10-26T12:48:24;98591.50;;;43.38;20.02
9474;BME280;8865;47.636;7.692;2022-10-26T12:54:01;98602.47;;;42.80;19.92
9474;BME280;8865;47.636;7.692;2022-10-26T13:02:15;98604.56;;;42.11;19.89
9474;BME280;8865;47.636;7.692;2022-10-26T13:07:38;98606.25;;;42.33;22.01
9474;BME280;8865;47.636;7.692;2022-10-26T13:13:06;98608.72;;;41.96;20.25
9474;BME280;8865;47.636;7.692;2022-10-26T13:20:35;98606.50;;;42.19;21.81
9474;BME280;8865;47.636;7.692;2022-10-26T13:23:12;98610.88;;;41.90;22.72
9474;BME280;8865;47.636;7.692;2022-10-26T13:25:40;98601.28;;;41.58;21.00
9474;BME280;8865;47.636;7.692;2022-10-26T13:30:58;98608.78;;;41.40;22.13
9474;BME280;8865;47.636;7.692;2022-10-26T13:33:40;98612.97;;;41.46;21.90
9474;BME280;8865;47.636;7.692;2022-10-26T13:36:30;98609.31;;;41.33;22.49
9474;BME280;8865;47.636;7.692;2022-10-26T13:39:00;98611.59;;;41.14;22.43
9474;BME280;8865;47.636;7.692;2022-10-26T13:41:35;98605.72;;;41.33;22.33
9474;BME280;8865;47.636;7.692;2022-10-26T13:44:05;98603.78;;;41.24;21.63
9474;BME280;8865;47.636;7.692;2022-10-26T13:46:35;98610.78;;;41.04;21.20
9474;BME280;8865;47.636;7.692;2022-10-26T13:49:14;98605.63;;;40.94;22.23
9474;BME280;8865;47.636;7.692;2022-10-26T13:51:46;98606.09;;;40.70;21.69
9474;BME280;8865;47.636;7.692;2022-10-26T13:59:43;98607.72;;;39.78;23.07
9474;BME280;8865;47.636;7.692;2022-10-26T14:02:24;98602.22;;;39.78;23.99
9474;BME280;8865;47.636;7.692;2022-10-26T14:05:00;98598.91;;;39.59;24.82
9474;BME280;8865;47.636;7.692;2022-10-26T14:07:56;98610.94;;;39.18;25.58
9474;BME280;8865;47.636;7.692;2022-10-26T14:10:40;98604.72;;;39.26;24.70
9474;BME280;8865;47.636;7.692;2022-10-26T14:13:08;98615.66;;;39.26;25.48
9474;BME280;8865;47.636;7.692;2022-10-26T14:15:35;98623.00;;;38.71;24.78
9474;BME280;8865;47.636;7.692;2022-10-26T14:18:02;98628.13;;;37.81;26.56
9474;BME280;8865;47.636;7.692;2022-10-26T14:20:30;98627.13;;;36.78;28.09
9474;BME280;8865;47.636;7.692;2022-10-26T14:22:56;98627.91;;;35.38;28.72
9474;BME280;8865;47.636;7.692;2022-10-26T14:25:26;98629.56;;;33.95;30.57
9474;BME280;8865;47.636;7.692;2022-10-26T14:27:52;98628.44;;;32.57;33.65
9474;BME280;8865;47.636;7.692;2022-10-26T14:30:27;98628.56;;;31.34;37.59
9474;BME280;8865;47.636;7.692;2022-10-26T14:32:54;98632.88;;;30.26;40.70
9474;BME280;8865;47.636;7.692;2022-10-26T14:35:24;98629.44;;;29.52;41.15
9474;BME280;8865;47.636;7.692;2022-10-26T14:38:03;98647.84;;;28.93;49.64
9474;BME280;8865;47.636;7.692;2022-10-26T14:40:33;98643.78;;;28.49;51.98
9474;BME280;8865;47.636;7.692;2022-10-26T14:43:02;98646.22;;;28.10;63.38
9474;BME280;8865;47.636;7.692;2022-10-26T14:45:33;98650.94;;;27.68;67.28
9474;BME280;8865;47.636;7.692;2022-10-26T14:48:02;98639.50;;;27.30;67.47
9474;BME280;8865;47.636;7.692;2022-10-26T14:50:29;98644.94;;;27.00;74.89
9474;BME280;8865;47.636;7.692;2022-10-26T14:53:15;98644.75;;;26.71;82.70
9474;BME280;8865;47.636;7.692;2022-10-26T14:55:51;98644.47;;;26.42;77.49
9474;BME280;8865;47.636;7.692;2022-10-26T14:58:21;98642.06;;;26.15;85.79
9474;BME280;8865;47.636;7.692;2022-10-26T15:04:03;98656.63;;;25.64;90.45
9474;BME280;8865;47.636;7.692;2022-10-26T15:06:41;98654.63;;;25.34;90.31
9474;BME280;8865;47.636;7.692;2022-10-26T15:09:32;98660.94;;;25.08;99.60
9474;BME280;8865;47.636;7.692;2022-10-26T15:12:03;98660.06;;;24.82;100.00
9474;BME280;8865;47.636;7.692;2022-10-26T15:14:29;98662.63;;;24.57;100.00
9474;BME280;8865;47.636;7.692;2022-10-26T15:16:57;98658.63;;;24.34;100.00
9474;BME280;8865;47.636;7.692;2022-10-26T15:19:24;98664.66;;;24.10;100.00
9474;BME280;8865;47.636;7.692;2022-10-26T15:21:52;98672.09;;;23.94;100.00
9474;BME280;8865;47.636;7.692;2022-10-26T15:24:25;98667.59;;;23.75;100.00
9474;BME280;8865;47.636;7.692;2022-10-26T15:26:52;98678.28;;;23.54;100.00
9474;BME280;8865;47.636;7.692;2022-10-26T15:37:48;98681.44;;;22.83;100.00
9474;BME280;8865;47.636;7.692;2022-10-26T15:40:15;98679.97;;;22.67;100.00
9474;BME280;8865;47.636;7.692;2022-10-26T15:42:42;98690.19;;;22.57;100.00
9474;BME280;8865;47.636;7.692;2022-10-26T15:45:24;98690.75;;;22.45;100.00
9474;BME280;8865;47.636;7.692;2022-10-26T15:47:52;98698.91;;;22.37;100.00
9474;BME280;8865;47.636;7.692;2022-10-26T16:01:42;98718.72;;;21.65;100.00
9474;BME280;8865;47.636;7.692;2022-10-26T16:11:10;98735.19;;;21.10;100.00
9474;BME280;8865;47.636;7.692;2022-10-26T16:14:40;98735.59;;;20.92;100.00
9474;BME280;8865;47.636;7.692;2022-10-26T16:18:24;98738.59;;;20.67;100.00
9474;BME280;8865;47.636;7.692;2022-10-26T16:21:17;98735.47;;;20.49;100.00